createdAt,value
2022-12-31T00:01:40.980Z,5.90
2022-12-31T00:13:17.966Z,5.64
2022-12-31T00:18:30.915Z,5.54
2022-12-31T00:24:33.378Z,6.78
2022-12-31T00:30:48.245Z,10.98
2022-12-31T00:37:07.321Z,9.95
2022-12-31T00:49:53.754Z,7.47
2022-12-31T00:56:42.670Z,6.81
2022-12-31T01:02:56.288Z,6.32
2022-12-31T01:09:06.798Z,5.94
2022-12-31T01:15:11.076Z,5.67
2022-12-31T01:20:39.465Z,5.47
2022-12-31T01:26:20.049Z,5.33
2022-12-31T01:32:34.352Z,5.25
2022-12-31T01:38:58.723Z,7.42
2022-12-31T01:44:48.179Z,11.17
2022-12-31T01:51:18.763Z,9.85
2022-12-31T01:57:28.464Z,8.41
2022-12-31T02:04:28.816Z,7.65
2022-12-31T02:10:52.731Z,7.02
2022-12-31T03:34:11.648Z,7.30
2022-12-31T03:40:16.821Z,6.91
2022-12-31T03:52:09.940Z,6.46
2022-12-31T03:58:23.096Z,6.31
2022-12-31T04:11:35.785Z,6.01
2022-12-31T04:17:44.323Z,7.91
2022-12-31T04:23:43.961Z,11.69
2022-12-31T04:30:38.795Z,10.46
2022-12-31T04:37:40.887Z,8.83
2022-12-31T04:45:10.130Z,7.97
2022-12-31T04:51:09.748Z,7.26
2022-12-31T04:57:34.390Z,6.78
2022-12-31T05:04:06.996Z,6.43
2022-12-31T05:10:27.409Z,6.17
2022-12-31T05:16:35.765Z,5.98
2022-12-31T05:30:11.342Z,11.63
2022-12-31T05:36:49.311Z,9.91
2022-12-31T05:44:33.305Z,8.73
2022-12-31T05:49:57.804Z,8.01
2022-12-31T06:18:01.558Z,6.73
2022-12-31T06:37:37.292Z,7.82
2022-12-31T06:58:36.709Z,9.10
2022-12-31T07:04:57.029Z,8.35
2022-12-31T07:11:24.219Z,7.80
2022-12-31T07:19:25.094Z,7.39
2022-12-31T07:25:36.385Z,7.07
2022-12-31T07:39:54.895Z,6.88
2022-12-31T07:52:02.068Z,12.83
2022-12-31T08:12:17.588Z,9.46
2022-12-31T08:18:12.619Z,9.17
2022-12-31T08:24:55.158Z,9.10
2022-12-31T08:31:48.217Z,9.15
2022-12-31T08:38:08.255Z,11.48
2022-12-31T09:04:39.630Z,12.47
2022-12-31T09:11:33.713Z,12.08
2022-12-31T09:17:47.456Z,11.86
2022-12-31T09:29:52.597Z,15.81
2022-12-31T09:36:10.440Z,14.34
2022-12-31T09:42:26.679Z,13.63
2022-12-31T09:48:33.768Z,13.23
2022-12-31T09:54:03.037Z,13.10
2022-12-31T10:00:20.616Z,13.09
2022-12-31T10:06:59.499Z,13.04
2022-12-31T10:13:06.495Z,13.00
2022-12-31T10:18:44.625Z,13.01
2022-12-31T10:25:39.401Z,13.03
2022-12-31T10:38:10.572Z,15.39
2022-12-31T10:43:41.693Z,17.04
2022-12-31T10:49:47.318Z,15.88
2022-12-31T10:56:12.532Z,15.24
2022-12-31T11:02:04.256Z,14.89
2022-12-31T11:07:58.717Z,14.65
2022-12-31T11:13:39.355Z,14.42
2022-12-31T11:19:33.580Z,14.27
2022-12-31T11:25:12.859Z,14.20
2022-12-31T11:30:47.962Z,14.21
2022-12-31T11:36:42.331Z,15.94
2022-12-31T11:42:02.084Z,17.56
2022-12-31T11:48:30.187Z,16.29
2022-12-31T11:54:48.733Z,15.45
2022-12-31T12:00:03.919Z,15.07
2022-12-31T12:06:08.763Z,14.86
2022-12-31T12:12:23.640Z,14.72
2022-12-31T12:18:09.642Z,14.65
2022-12-31T12:29:55.529Z,14.62
2022-12-31T12:35:39.763Z,14.61
2022-12-31T12:41:46.033Z,14.63
2022-12-31T12:47:09.150Z,14.67
2022-12-31T12:53:03.776Z,14.71
2022-12-31T12:58:37.411Z,14.76
2022-12-31T13:04:41.428Z,14.76
2022-12-31T13:10:12.829Z,14.76
2022-12-31T13:16:41.366Z,14.77
2022-12-31T13:22:03.083Z,14.78
2022-12-31T13:28:12.608Z,14.79
2022-12-31T13:34:22.544Z,14.82
2022-12-31T13:39:43.625Z,14.82
2022-12-31T13:45:29.317Z,14.80
2022-12-31T13:51:04.010Z,14.78
2022-12-31T13:56:59.572Z,14.78
2022-12-31T14:03:03.268Z,14.74
2022-12-31T14:08:41.998Z,14.71
2022-12-31T14:14:47.835Z,14.71
2022-12-31T14:21:05.657Z,14.70
2022-12-31T14:26:37.956Z,14.67
2022-12-31T14:32:26.122Z,16.11
2022-12-31T14:38:08.691Z,18.25
2022-12-31T14:44:22.233Z,16.92
2022-12-31T14:49:48.281Z,16.11
2022-12-31T14:55:02.008Z,15.68
2022-12-31T15:01:03.709Z,15.38
2022-12-31T15:06:16.039Z,15.12
2022-12-31T15:11:58.090Z,14.93
2022-12-31T15:17:19.905Z,14.76
2022-12-31T15:23:24.081Z,14.63
2022-12-31T15:29:11.627Z,14.53
2022-12-31T15:34:35.092Z,14.45
2022-12-31T15:46:47.321Z,14.31
2022-12-31T15:59:34.063Z,14.18
2022-12-31T16:04:56.020Z,14.14
2022-12-31T16:11:13.372Z,15.76
2022-12-31T16:16:37.615Z,18.60
2022-12-31T16:22:43.068Z,17.51
2022-12-31T16:28:42.971Z,16.58
2022-12-31T16:34:56.305Z,16.07
2022-12-31T16:41:04.551Z,15.67
2022-12-31T16:46:42.400Z,15.34
2022-12-31T16:51:52.423Z,15.08
2022-12-31T16:57:59.789Z,14.89
2022-12-31T17:11:25.171Z,14.52
2022-12-31T17:17:34.929Z,14.38
2022-12-31T17:23:42.446Z,14.31
2022-12-31T17:36:09.014Z,14.30
2022-12-31T17:42:09.042Z,14.25
2022-12-31T17:47:58.985Z,14.19
2022-12-31T17:54:41.437Z,14.15
2022-12-31T18:00:22.066Z,16.18
2022-12-31T18:05:59.477Z,18.00
2022-12-31T18:12:01.282Z,16.69
2022-12-31T18:17:52.355Z,15.98
2022-12-31T18:23:44.347Z,15.56
2022-12-31T18:29:40.090Z,15.34
2022-12-31T18:36:07.752Z,15.28
2022-12-31T18:41:27.179Z,15.31
2022-12-31T18:46:51.674Z,15.31
2022-12-31T18:51:59.643Z,15.11
2022-12-31T18:57:29.334Z,14.85
2022-12-31T19:03:05.955Z,14.57
2022-12-31T19:08:15.456Z,14.33
2022-12-31T19:14:25.737Z,14.16
2022-12-31T19:20:07.956Z,14.03
2022-12-31T19:25:52.540Z,13.92
2022-12-31T19:31:47.060Z,13.86
2022-12-31T19:38:07.988Z,15.85
2022-12-31T19:43:44.673Z,17.55
2022-12-31T19:49:28.369Z,16.21
2022-12-31T19:54:51.919Z,15.53
2022-12-31T20:00:18.379Z,15.16
2022-12-31T20:05:27.849Z,14.80
2022-12-31T20:10:52.788Z,14.54
2022-12-31T20:17:17.492Z,14.29
2022-12-31T20:22:48.778Z,13.96
2022-12-31T20:28:17.315Z,13.66
2022-12-31T20:34:34.313Z,13.36
2022-12-31T20:40:13.135Z,13.02
2022-12-31T20:45:32.720Z,12.72
2022-12-31T20:51:35.054Z,12.44
2022-12-31T21:10:43.586Z,15.09
2022-12-31T21:16:56.486Z,13.94
2022-12-31T21:22:52.711Z,13.24
2022-12-31T21:29:09.571Z,12.64
2022-12-31T21:36:02.637Z,12.33
2022-12-31T21:41:55.047Z,12.21
2022-12-31T21:47:48.300Z,12.22
2022-12-31T21:54:11.306Z,14.26
2022-12-31T22:00:41.083Z,17.55
2022-12-31T22:07:12.394Z,16.60
2022-12-31T22:13:50.492Z,15.67
2022-12-31T22:25:06.331Z,14.64
2022-12-31T22:31:15.996Z,14.22
2022-12-31T22:43:26.085Z,13.85
2022-12-31T22:52:01.741Z,13.78
2022-12-31T22:56:41.540Z,13.71
2022-12-31T23:02:28.123Z,13.70
2022-12-31T23:07:46.690Z,13.69
2022-12-31T23:20:05.071Z,13.77
2022-12-31T23:31:56.887Z,13.92
2022-12-31T23:37:46.921Z,13.96
2022-12-31T23:44:01.607Z,13.95
2022-12-31T23:49:48.119Z,13.88
